8CO2 weather

William Leon Schawo Airport
Briggsdale, Colorado, United States

Public forecast

Using degrees Fahrenheit for public forecast. Weather courtesy of forecast.io.

Closest aviation weather report (METAR) to William Leon Schawo Airport

Closest report is Greeley–Weld County Airport, 23.9 nm (44.3 km) SW. Retrieved 2020/02/23 16:56 UTC (56 minutes ago):

KGXY 231656Z AUTO 29003KT 10SM BKN043 OVC050 06/M08 A3004 RMK AO2 SLP188 T00561078

Closest aviation forecast (TAF) to William Leon Schawo Airport

Closest forecast is Cheyenne Regional Jerry Olson Field, 40.0 nm (74.0 km) NW. Retrieved 2020/02/23 12:22 UTC (5 hours ago):

TAF KCYS 231120Z 2312/2412 30005KT P6SM BKN120 FM231400 13007KT P6SM VCSH SCT040 BKN060 FM232100 22008KT P6SM VCSH OVC030 FM240600 28025G35KT P6SM SCT100 WS014/29035KT